Time;durP1;ratioP1;P1;durP2;ratioP2;P2;SDS_P1;SDS_P2;PMS_P1;PMS_P2;Temp;Humidity;BMP_temperature;BMP_pressure;BME280_temperature;BME280_humidity;BME280_pressure;Samples;Min_cycle;Max_cycle;Signal;HPM_P1;HPM_P2
2021/06/09 00:00:29;;;;;;;1.48;0.50;;;19.70;99.90;;;;;;3574551;40;20370;-67
2021/06/09 00:02:55;;;;;;;1.67;0.40;;;19.80;99.90;;;;;;3558021;40;20398;-66
2021/06/09 00:05:21;;;;;;;1.08;0.40;;;19.80;99.90;;;;;;3574013;40;20648;-67
2021/06/09 00:07:48;;;;;;;1.23;0.40;;;19.60;99.90;;;;;;3566823;40;20405;-66
2021/06/09 00:10:14;;;;;;;0.90;0.40;;;19.30;99.90;;;;;;3577801;40;20452;-67
2021/06/09 00:12:40;;;;;;;1.55;0.60;;;19.40;99.90;;;;;;3578648;40;20378;-67
2021/06/09 00:15:09;;;;;;;0.85;0.40;;;19.40;99.90;;;;;;3578264;40;20736;-67
2021/06/09 00:17:35;;;;;;;1.60;0.80;;;19.40;99.90;;;;;;3575822;40;20409;-67
2021/06/09 00:20:01;;;;;;;1.17;0.40;;;19.40;99.90;;;;;;3567133;40;20392;-66
2021/06/09 00:22:27;;;;;;;2.00;0.40;;;19.50;99.90;;;;;;3576793;40;20383;-66
2021/06/09 00:24:54;;;;;;;2.55;0.45;;;19.40;99.90;;;;;;3572521;40;20408;-67
2021/06/09 00:27:20;;;;;;;0.75;0.35;;;19.40;99.90;;;;;;3578766;40;20376;-67
2021/06/09 00:29:46;;;;;;;1.85;0.40;;;19.40;99.90;;;;;;3574284;40;20377;-66
2021/06/09 00:32:12;;;;;;;2.38;0.50;;;19.40;99.90;;;;;;3564979;40;20418;-66
2021/06/09 00:34:38;;;;;;;2.80;0.50;;;19.50;99.90;;;;;;3574963;40;20387;-66
2021/06/09 00:37:04;;;;;;;3.45;0.40;;;19.60;99.90;;;;;;3577429;40;20396;-66
2021/06/09 00:39:30;;;;;;;1.42;0.50;;;19.50;99.90;;;;;;3575697;40;20396;-66
2021/06/09 00:41:57;;;;;;;1.02;0.50;;;19.60;99.90;;;;;;3566656;40;20434;-66
2021/06/09 00:44:23;;;;;;;2.00;0.45;;;19.60;99.90;;;;;;3573679;40;20428;-66
2021/06/09 00:46:49;;;;;;;1.17;0.43;;;19.60;99.90;;;;;;3580157;40;20372;-66
2021/06/09 00:49:15;;;;;;;0.65;0.57;;;19.50;99.90;;;;;;3578221;40;20402;-67
2021/06/09 00:51:41;;;;;;;1.27;0.40;;;19.60;99.90;;;;;;3572223;40;20687;-66
2021/06/09 00:54:08;;;;;;;1.60;0.43;;;19.60;99.90;;;;;;3559448;40;20387;-66
2021/06/09 00:56:36;;;;;;;1.60;0.43;;;19.60;99.90;;;;;;3568818;40;20436;-66
2021/06/09 00:59:04;;;;;;;0.98;0.40;;;19.60;99.90;;;;;;3565882;40;20390;-67
2021/06/09 01:01:31;;;;;;;0.88;0.57;;;19.70;99.90;;;;;;3565775;40;20413;-67
2021/06/09 01:03:58;;;;;;;2.80;0.50;;;19.70;99.90;;;;;;3564746;40;20687;-68
2021/06/09 01:06:25;;;;;;;0.70;0.50;;;19.70;99.90;;;;;;3561896;40;20396;-67
2021/06/09 01:08:52;;;;;;;1.15;0.50;;;19.70;99.90;;;;;;3565679;40;20405;-67
2021/06/09 01:11:20;;;;;;;3.00;0.50;;;19.80;99.90;;;;;;3565332;40;20427;-67
2021/06/09 01:13:47;;;;;;;0.83;0.40;;;19.80;99.90;;;;;;3564886;40;20404;-68
2021/06/09 01:16:14;;;;;;;1.30;0.50;;;19.70;99.90;;;;;;3566967;40;20394;-67
2021/06/09 01:18:41;;;;;;;0.70;0.40;;;19.80;99.90;;;;;;3570721;40;20495;-68
2021/06/09 01:21:07;;;;;;;0.70;0.50;;;19.80;99.90;;;;;;3565625;40;20399;-68
2021/06/09 01:23:34;;;;;;;2.15;0.80;;;19.80;99.90;;;;;;3565495;40;20696;-67
2021/06/09 01:26:01;;;;;;;4.00;0.50;;;19.90;99.90;;;;;;3561729;40;20405;-67
2021/06/09 01:28:27;;;;;;;1.88;0.55;;;19.80;99.90;;;;;;3577294;40;20902;-67
2021/06/09 01:30:54;;;;;;;2.00;0.50;;;19.70;99.90;;;;;;3577275;40;20645;-67
2021/06/09 01:33:21;;;;;;;2.25;0.50;;;19.80;99.90;;;;;;3576737;40;20410;-67
2021/06/09 01:35:50;;;;;;;0.60;0.43;;;19.80;99.90;;;;;;3577537;40;20376;-67
2021/06/09 01:38:16;;;;;;;0.60;0.50;;;19.70;99.90;;;;;;3577108;40;20376;-67
2021/06/09 01:40:43;;;;;;;1.23;0.50;;;19.80;99.90;;;;;;3577312;40;20373;-67
2021/06/09 01:43:09;;;;;;;1.10;0.50;;;19.90;99.90;;;;;;3576973;40;20425;-67
2021/06/09 01:45:37;;;;;;;2.10;0.50;;;19.90;99.90;;;;;;3577149;40;20384;-67
2021/06/09 01:48:04;;;;;;;1.35;0.50;;;19.80;99.90;;;;;;3571798;40;20417;-67
2021/06/09 01:50:31;;;;;;;0.93;0.60;;;19.80;99.90;;;;;;3576367;40;20497;-67
2021/06/09 01:52:57;;;;;;;1.30;0.50;;;19.80;99.90;;;;;;3575143;40;20392;-66
2021/06/09 01:55:26;;;;;;;1.70;0.65;;;19.80;99.90;;;;;;3562587;40;20394;-67
2021/06/09 01:57:53;;;;;;;2.10;0.60;;;19.80;99.90;;;;;;3573876;40;20392;-67
2021/06/09 02:00:21;;;;;;;0.63;0.60;;;19.80;99.90;;;;;;3571512;40;20455;-67
2021/06/09 02:02:47;;;;;;;1.10;0.82;;;19.70;99.90;;;;;;3575349;40;20668;-74
2021/06/09 02:05:14;;;;;;;1.10;0.50;;;19.80;99.90;;;;;;3575969;40;20412;-67
2021/06/09 02:07:42;;;;;;;0.70;0.50;;;19.80;99.90;;;;;;3579742;40;20416;-67
2021/06/09 02:10:11;;;;;;;2.05;0.60;;;19.80;99.90;;;;;;3576103;40;20453;-66
2021/06/09 02:12:40;;;;;;;0.90;0.60;;;19.80;99.90;;;;;;3581248;40;20382;-67
2021/06/09 02:15:09;;;;;;;0.73;0.70;;;19.70;99.90;;;;;;3583113;40;20779;-67
2021/06/09 02:17:35;;;;;;;1.45;0.60;;;19.70;99.90;;;;;;3581920;40;20428;-66
2021/06/09 02:20:02;;;;;;;1.00;0.60;;;19.70;99.90;;;;;;3575942;40;20372;-67
2021/06/09 02:22:29;;;;;;;1.00;0.70;;;19.60;99.90;;;;;;3573660;40;20400;-67
2021/06/09 02:24:55;;;;;;;0.50;0.50;;;19.70;99.90;;;;;;3573596;40;20380;-67
2021/06/09 02:27:21;;;;;;;1.50;0.70;;;19.60;99.90;;;;;;3560172;40;20409;-67
2021/06/09 02:29:47;;;;;;;0.93;0.60;;;19.60;99.90;;;;;;3576306;40;20646;-67
2021/06/09 02:32:18;;;;;;;1.43;0.60;;;19.60;99.90;;;;;;3576835;40;20392;-67
2021/06/09 02:34:44;;;;;;;0.60;0.60;;;19.50;99.90;;;;;;3580687;40;20367;-66
2021/06/09 02:37:10;;;;;;;2.45;0.70;;;19.50;99.90;;;;;;3573039;40;20374;-67
2021/06/09 02:39:37;;;;;;;1.10;0.57;;;19.50;99.90;;;;;;3577012;40;20402;-67
2021/06/09 02:42:03;;;;;;;1.30;0.50;;;19.50;99.90;;;;;;3576184;40;20390;-73
2021/06/09 02:44:29;;;;;;;2.17;0.60;;;19.60;99.90;;;;;;3574054;40;20846;-73
2021/06/09 02:46:59;;;;;;;1.17;0.70;;;19.60;99.90;;;;;;3575855;40;20398;-73
2021/06/09 02:49:30;;;;;;;1.88;0.50;;;19.60;99.90;;;;;;3568705;40;20495;-73
2021/06/09 02:52:01;;;;;;;0.97;0.40;;;19.60;99.90;;;;;;3573990;40;20465;-74
2021/06/09 02:54:33;;;;;;;1.00;0.50;;;19.60;99.90;;;;;;3578074;40;20372;-73
2021/06/09 02:57:05;;;;;;;1.00;0.50;;;19.60;99.90;;;;;;3574829;40;20374;-67
2021/06/09 02:59:43;;;;;;;1.40;0.70;;;19.60;99.90;;;;;;3574836;40;20368;-67
2021/06/09 03:02:14;;;;;;;1.33;0.70;;;19.60;99.90;;;;;;3570602;40;20397;-67
2021/06/09 03:04:49;;;;;;;3.00;0.50;;;19.40;99.90;;;;;;3580127;40;20424;-67
2021/06/09 03:07:19;;;;;;;1.25;0.50;;;;;;;;;;3570532;40;20719;-67
2021/06/09 03:09:54;;;;;;;1.35;0.60;;;19.30;99.90;;;;;;3569763;40;20393;-67
2021/06/09 03:12:32;;;;;;;1.10;0.52;;;;;;;;;;3579500;40;20474;-67
2021/06/09 03:15:10;;;;;;;3.75;0.60;;;;;;;;;;3579925;40;20407;-68
2021/06/09 03:17:43;;;;;;;1.50;0.50;;;19.30;99.90;;;;;;3578986;40;20523;-68
2021/06/09 03:20:18;;;;;;;2.00;0.50;;;19.10;99.90;;;;;;3573145;40;20760;-67
2021/06/09 03:22:56;;;;;;;1.20;0.50;;;19.10;99.90;;;;;;3567285;40;20416;-67
2021/06/09 03:25:28;;;;;;;0.70;0.40;;;19.10;99.90;;;;;;3576651;40;20495;-67
2021/06/09 03:27:58;;;;;;;1.40;0.60;;;19.10;99.90;;;;;;3576594;40;20374;-67
2021/06/09 03:30:28;;;;;;;1.60;0.50;;;19.10;99.90;;;;;;3575092;40;20371;-67
2021/06/09 03:32:58;;;;;;;1.70;0.53;;;19.10;99.90;;;;;;3571425;40;20431;-67
2021/06/09 03:35:30;;;;;;;0.82;0.50;;;19.00;99.90;;;;;;3574552;40;20370;-67
2021/06/09 03:37:58;;;;;;;0.57;0.50;;;18.90;99.90;;;;;;3577229;40;20376;-67
2021/06/09 03:40:28;;;;;;;1.10;0.57;;;18.80;99.90;;;;;;3564464;40;20511;-67
2021/06/09 03:42:58;;;;;;;1.05;0.50;;;18.80;99.90;;;;;;3579021;40;20407;-67
2021/06/09 03:45:27;;;;;;;1.00;0.50;;;18.80;99.90;;;;;;3573113;40;20477;-67
2021/06/09 03:47:55;;;;;;;1.58;0.40;;;18.80;99.90;;;;;;3566906;40;20410;-67
2021/06/09 03:50:23;;;;;;;0.80;0.50;;;19.00;99.90;;;;;;3581431;40;20405;-67
2021/06/09 03:52:52;;;;;;;1.27;0.50;;;18.90;99.90;;;;;;3576356;40;20369;-67
2021/06/09 03:55:21;;;;;;;0.70;0.60;;;18.90;99.90;;;;;;3576499;40;20753;-67
2021/06/09 03:57:50;;;;;;;2.60;0.60;;;18.90;99.90;;;;;;3576291;40;20372;-67
2021/06/09 04:00:17;;;;;;;0.50;0.40;;;19.00;99.90;;;;;;3566892;40;20403;-67
2021/06/09 04:02:44;;;;;;;0.60;0.50;;;19.00;99.90;;;;;;3575364;40;20421;-68
2021/06/09 04:05:11;;;;;;;0.65;0.50;;;19.00;99.90;;;;;;3578410;40;20488;-67
2021/06/09 04:07:38;;;;;;;1.00;0.43;;;19.00;99.90;;;;;;3569296;40;20515;-67
2021/06/09 04:10:07;;;;;;;0.60;0.50;;;19.00;99.90;;;;;;3580983;40;20551;-67
2021/06/09 04:12:34;;;;;;;1.10;0.50;;;18.80;99.90;;;;;;3576440;40;20390;-67
2021/06/09 04:15:02;;;;;;;0.70;0.57;;;18.70;99.90;;;;;;3580168;40;20412;-67
2021/06/09 04:17:30;;;;;;;1.77;0.70;;;18.80;99.90;;;;;;3576998;40;20408;-67
2021/06/09 04:19:59;;;;;;;0.40;0.40;;;;;;;;;;3574347;40;20375;-67
2021/06/09 04:22:26;;;;;;;0.40;0.40;;;;;;;;;;3558103;40;20433;-67
2021/06/09 04:24:52;;;;;;;1.80;0.57;;;;;;;;;;3576892;40;20360;-67
2021/06/09 04:27:21;;;;;;;1.60;0.60;;;;;;;;;;3577742;40;20372;-67
2021/06/09 04:29:49;;;;;;;0.60;0.50;;;;;;;;;;3572900;40;20727;-67
2021/06/09 04:32:15;;;;;;;1.50;0.60;;;;;;;;;;3579433;40;20384;-67
2021/06/09 04:34:42;;;;;;;2.30;0.60;;;;;;;;;;3572087;40;20381;-67
2021/06/09 04:37:08;;;;;;;0.88;0.60;;;;;;;;;;3575866;40;20380;-67
2021/06/09 04:39:36;;;;;;;0.93;0.63;;;18.80;99.90;;;;;;3576500;40;20405;-66
2021/06/09 04:42:03;;;;;;;1.80;0.68;;;18.40;99.90;;;;;;3570533;40;20815;-67
2021/06/09 04:44:30;;;;;;;1.17;0.60;;;18.30;99.90;;;;;;3568510;40;20443;-67
2021/06/09 04:46:56;;;;;;;1.90;0.70;;;18.50;99.90;;;;;;3578704;40;20653;-67
2021/06/09 04:49:31;;;;;;;0.90;0.50;;;18.50;99.90;;;;;;3572590;40;20411;-67
2021/06/09 04:51:57;;;;;;;2.08;0.60;;;18.50;99.90;;;;;;3576962;40;20378;-67
2021/06/09 04:54:23;;;;;;;1.85;0.65;;;18.70;99.90;;;;;;3576033;40;20383;-67
2021/06/09 04:56:49;;;;;;;0.77;0.50;;;18.70;99.90;;;;;;3580589;40;20376;-67
2021/06/09 04:59:15;;;;;;;1.00;0.60;;;18.70;99.90;;;;;;3578788;40;20378;-67
2021/06/09 05:01:42;;;;;;;1.73;0.75;;;18.70;99.90;;;;;;3571862;40;20384;-66
2021/06/09 05:04:09;;;;;;;1.25;0.60;;;18.80;99.90;;;;;;3576568;40;20408;-67
2021/06/09 05:06:35;;;;;;;2.13;0.80;;;18.90;99.90;;;;;;3557548;40;20655;-68
2021/06/09 05:09:03;;;;;;;3.20;0.60;;;18.80;99.90;;;;;;3560614;40;20777;-67
2021/06/09 05:11:36;;;;;;;1.35;0.68;;;18.90;99.90;;;;;;3565869;40;20371;-67
2021/06/09 05:14:04;;;;;;;1.07;0.70;;;18.90;99.90;;;;;;3567231;40;20396;-67
2021/06/09 05:16:33;;;;;;;0.93;0.65;;;18.90;99.90;;;;;;3567373;40;20413;-67
2021/06/09 05:19:03;;;;;;;1.13;0.82;;;19.00;99.90;;;;;;3565023;40;20386;-67
2021/06/09 05:21:31;;;;;;;0.85;0.77;;;18.90;99.90;;;;;;3564982;40;20666;-67
2021/06/09 05:23:59;;;;;;;1.80;0.90;;;18.90;99.90;;;;;;3557883;40;20745;-67
2021/06/09 05:26:26;;;;;;;1.57;0.60;;;18.90;99.90;;;;;;3569718;40;20420;-67
2021/06/09 05:28:56;;;;;;;1.45;0.80;;;19.00;99.90;;;;;;3568376;40;20377;-67
2021/06/09 05:31:24;;;;;;;2.23;0.70;;;19.00;99.90;;;;;;3561251;40;20374;-67
2021/06/09 05:33:52;;;;;;;0.75;0.70;;;18.90;99.90;;;;;;3563570;40;20478;-71
2021/06/09 05:36:20;;;;;;;3.30;0.70;;;18.90;99.90;;;;;;3570634;40;20387;-68
2021/06/09 05:38:46;;;;;;;1.33;0.63;;;19.00;99.90;;;;;;3572146;40;20490;-67
2021/06/09 05:41:12;;;;;;;0.90;0.70;;;19.00;99.90;;;;;;3565147;40;20540;-67
2021/06/09 05:43:40;;;;;;;1.55;1.00;;;19.00;99.90;;;;;;3568342;40;20401;-67
2021/06/09 05:46:08;;;;;;;2.30;0.80;;;19.20;99.90;;;;;;3556398;40;20398;-67
2021/06/09 05:48:38;;;;;;;0.98;0.60;;;19.20;99.90;;;;;;3557523;40;20387;-67
2021/06/09 05:51:04;;;;;;;0.68;0.50;;;19.30;99.90;;;;;;3564986;40;20487;-67
2021/06/09 05:53:32;;;;;;;1.02;0.60;;;;;;;;;;3568260;40;20413;-67
2021/06/09 05:55:58;;;;;;;1.63;0.60;;;19.30;99.90;;;;;;3568406;40;20849;-67
2021/06/09 05:58:25;;;;;;;1.63;0.50;;;19.50;99.90;;;;;;3564083;40;20398;-66
2021/06/09 06:00:54;;;;;;;1.60;0.70;;;19.50;99.90;;;;;;3574143;40;20465;-67
2021/06/09 06:03:22;;;;;;;0.83;0.60;;;;;;;;;;3554016;40;20775;-67
2021/06/09 06:05:49;;;;;;;2.13;0.70;;;;;;;;;;3571030;40;20395;-66
2021/06/09 06:08:15;;;;;;;2.30;0.60;;;;;;;;;;3572659;40;20375;-67
2021/06/09 06:10:43;;;;;;;1.40;0.65;;;;;;;;;;3574534;40;20403;-67
2021/06/09 06:13:09;;;;;;;1.60;0.60;;;;;;;;;;3573683;40;20410;-67
2021/06/09 06:15:35;;;;;;;0.95;0.50;;;;;;;;;;3555185;40;20404;-67
2021/06/09 06:18:02;;;;;;;1.37;0.70;;;;;;;;;;3578884;40;20390;-67
2021/06/09 06:20:28;;;;;;;1.83;0.50;;;;;;;;;;3575532;40;20637;-67
2021/06/09 06:22:55;;;;;;;1.63;0.73;;;;;;;;;;3578906;40;20501;-68
2021/06/09 06:25:23;;;;;;;1.20;0.70;;;;;;;;;;3577416;40;20487;-68
2021/06/09 06:27:52;;;;;;;1.83;0.50;;;;;;;;;;3576814;40;20645;-68
2021/06/09 06:30:19;;;;;;;0.73;0.52;;;;;;;;;;3578991;40;20415;-67
2021/06/09 06:32:49;;;;;;;2.65;0.50;;;19.60;99.90;;;;;;3574435;40;20368;-67
2021/06/09 06:35:18;;;;;;;1.48;0.50;;;20.40;99.90;;;;;;3573076;40;20374;-67
2021/06/09 06:37:44;;;;;;;2.35;0.68;;;20.50;99.90;;;;;;3569584;40;20704;-67
2021/06/09 06:40:13;;;;;;;1.70;0.50;;;20.50;99.90;;;;;;3571875;40;20389;-67
2021/06/09 06:42:39;;;;;;;0.95;0.52;;;20.50;99.90;;;;;;3576242;40;20398;-67
2021/06/09 06:45:09;;;;;;;1.20;0.50;;;20.60;99.90;;;;;;3574974;40;20402;-68
2021/06/09 06:47:35;;;;;;;1.55;0.50;;;20.70;99.90;;;;;;3563281;40;20425;-67
2021/06/09 06:50:01;;;;;;;1.27;0.60;;;;;;;;;;3563171;40;20417;-73
2021/06/09 06:52:29;;;;;;;1.33;0.50;;;20.70;99.90;;;;;;3575055;40;20391;-68
2021/06/09 06:54:58;;;;;;;1.00;0.50;;;20.90;99.90;;;;;;3576429;40;20392;-67
2021/06/09 06:57:25;;;;;;;0.98;0.50;;;21.00;99.90;;;;;;3577470;40;20407;-67
2021/06/09 06:59:52;;;;;;;1.65;0.40;;;21.10;99.90;;;;;;3577383;40;20766;-69
2021/06/09 07:02:20;;;;;;;1.23;0.53;;;21.20;99.90;;;;;;3567061;40;20466;-67
2021/06/09 07:04:46;;;;;;;1.65;0.60;;;;;;;;;;3580035;40;20416;-67
2021/06/09 07:07:14;;;;;;;2.08;0.60;;;;;;;;;;3572440;40;20488;-67
2021/06/09 07:09:40;;;;;;;0.70;0.50;;;;;;;;;;3575540;40;20388;-67
2021/06/09 07:12:06;;;;;;;1.35;0.50;;;;;;;;;;3581007;40;20364;-67
2021/06/09 07:14:35;;;;;;;1.20;0.50;;;;;;;;;;3566968;40;20455;-68
2021/06/09 07:17:02;;;;;;;0.63;0.45;;;21.70;99.90;;;;;;3578139;40;20382;-68
2021/06/09 07:19:29;;;;;;;4.22;0.40;;;;;;;;;;3579035;40;20402;-67
2021/06/09 07:21:55;;;;;;;4.05;0.50;;;;;;;;;;3580798;40;20404;-67
2021/06/09 07:24:22;;;;;;;1.07;0.50;;;;;;;;;;3574584;40;20359;-67
2021/06/09 07:26:49;;;;;;;0.82;0.40;;;;;;;;;;3575892;40;20404;-68
2021/06/09 07:29:17;;;;;;;1.10;0.40;;;;;;;;;;3575612;40;20352;-67
2021/06/09 07:31:46;;;;;;;1.13;0.40;;;21.60;99.90;;;;;;3572694;40;20362;-67
2021/06/09 07:34:12;;;;;;;0.70;0.50;;;;;;;;;;3571627;40;20392;-67
2021/06/09 07:36:43;;;;;;;1.58;0.50;;;;;;;;;;3577332;40;20796;-68
2021/06/09 07:39:12;;;;;;;0.50;0.40;;;;;;;;;;3566872;40;20404;-67
2021/06/09 07:41:41;;;;;;;1.73;0.30;;;;;;;;;;3575497;40;20384;-68
2021/06/09 07:44:07;;;;;;;1.75;0.38;;;;;;;;;;3575889;40;20376;-69
2021/06/09 07:46:34;;;;;;;0.40;0.40;;;;;;;;;;3579597;40;20383;-68
2021/06/09 07:49:02;;;;;;;0.90;0.30;;;;;;;;;;3573291;40;20750;-68
2021/06/09 07:51:29;;;;;;;0.60;0.40;;;;;;;;;;3567723;40;20396;-68
2021/06/09 07:53:58;;;;;;;0.65;0.50;;;;;;;;;;3573538;40;20376;-68
2021/06/09 07:56:30;;;;;;;1.13;0.40;;;;;;;;;;3576619;40;20626;-68
2021/06/09 07:58:56;;;;;;;1.73;0.40;;;;;;;;;;3573658;40;20394;-69
2021/06/09 08:01:22;;;;;;;0.90;0.40;;;;;;;;;;3576986;40;20402;-67
2021/06/09 08:03:50;;;;;;;0.93;0.40;;;;;;;;;;3578170;40;20461;-69
2021/06/09 08:06:17;;;;;;;1.10;0.35;;;;;;;;;;3579525;40;20396;-68
2021/06/09 08:08:44;;;;;;;1.23;0.40;;;;;;;;;;3578550;40;20404;-68
2021/06/09 08:11:12;;;;;;;1.05;0.40;;;;;;;;;;3579176;40;20389;-68
2021/06/09 08:13:39;;;;;;;3.00;0.50;;;;;;;;;;3580452;40;20487;-68
2021/06/09 08:16:10;;;;;;;1.13;0.40;;;;;;;;;;3570751;40;20401;-68
2021/06/09 08:18:36;;;;;;;0.70;0.32;;;;;;;;;;3581372;40;20424;-68
2021/06/09 08:21:04;;;;;;;1.45;0.40;;;;;;;;;;3580503;40;20384;-68
2021/06/09 08:23:31;;;;;;;0.45;0.35;;;;;;;;;;3580784;40;20370;-68
2021/06/09 08:25:57;;;;;;;0.57;0.40;;;;;;;;;;3581401;40;20387;-68
2021/06/09 08:28:25;;;;;;;0.43;0.40;;;;;;;;;;3579132;40;20483;-67
2021/06/09 08:30:51;;;;;;;0.50;0.30;;;22.40;99.90;;;;;;3580124;40;20828;-69
2021/06/09 08:33:17;;;;;;;1.00;0.40;;;25.70;93.90;;;;;;3580624;40;20377;-68
2021/06/09 08:35:45;;;;;;;0.50;0.30;;;25.80;93.10;;;;;;3571224;40;20398;-68
2021/06/09 08:38:11;;;;;;;0.90;0.30;;;25.70;93.30;;;;;;3579882;40;20758;-69
2021/06/09 08:40:37;;;;;;;1.60;1.00;;;25.50;94.10;;;;;;3581994;40;20377;-69
2021/06/09 08:43:04;;;;;;;1.67;0.40;;;25.60;94.00;;;;;;3578542;40;20429;-70
2021/06/09 08:45:32;;;;;;;0.80;0.30;;;25.60;94.10;;;;;;3580084;40;20785;-70
2021/06/09 08:47:59;;;;;;;0.68;0.40;;;25.40;92.80;;;;;;3568727;40;20461;-69
2021/06/09 08:50:26;;;;;;;0.60;0.30;;;25.40;93.70;;;;;;3579468;40;20396;-69
2021/06/09 08:52:53;;;;;;;1.00;0.40;;;25.50;92.30;;;;;;3579565;40;20390;-70
2021/06/09 08:55:20;;;;;;;0.98;0.32;;;25.60;92.70;;;;;;3579401;40;20386;-69
2021/06/09 08:57:46;;;;;;;1.65;0.40;;;25.60;94.60;;;;;;3580177;40;20386;-70
2021/06/09 09:00:15;;;;;;;0.80;0.30;;;25.70;95.30;;;;;;3580612;40;20381;-70
2021/06/09 09:02:42;;;;;;;1.52;0.50;;;;;;;;;;3580914;40;20486;-69
2021/06/09 09:05:10;;;;;;;0.60;0.40;;;;;;;;;;3580833;40;20406;-69
2021/06/09 09:07:36;;;;;;;1.60;0.40;;;;;;;;;;3580657;40;20855;-69
2021/06/09 09:10:04;;;;;;;1.20;0.40;;;;;;;;;;3577792;40;20410;-69
2021/06/09 09:12:31;;;;;;;0.85;0.40;;;;;;;;;;3580717;40;20409;-70
2021/06/09 09:14:59;;;;;;;0.70;0.50;;;;;;;;;;3579970;40;20372;-69
2021/06/09 09:17:25;;;;;;;1.02;0.40;;;26.00;95.00;;;;;;3580124;40;20620;-69
2021/06/09 09:19:53;;;;;;;2.55;0.50;;;;;;;;;;3581730;40;20378;-69
2021/06/09 09:22:21;;;;;;;0.95;0.30;;;;;;;;;;3581582;40;20789;-70
2021/06/09 09:24:48;;;;;;;0.70;0.40;;;;;;;;;;3579298;40;20372;-70
2021/06/09 09:27:28;;;;;;;0.40;0.35;;;;;;;;;;3581215;40;20408;-69
2021/06/09 09:30:01;;;;;;;0.47;0.40;;;;;;;;;;3581868;40;20732;-70
2021/06/09 09:32:27;;;;;;;1.50;0.40;;;;;;;;;;3570445;40;20483;-69
2021/06/09 09:35:03;;;;;;;1.10;0.50;;;;;;;;;;3580883;40;20863;-70
2021/06/09 09:37:31;;;;;;;1.85;0.60;;;;;;;;;;3581330;40;20376;-68
2021/06/09 09:40:06;;;;;;;1.80;0.40;;;;;;;;;;3580509;40;20445;-69
2021/06/09 09:42:35;;;;;;;0.70;0.40;;;;;;;;;;3578974;40;20386;-69
2021/06/09 09:45:15;;;;;;;0.82;0.50;;;;;;;;;;3579746;40;20379;-71
2021/06/09 09:47:41;;;;;;;2.20;0.45;;;;;;;;;;3580882;40;20378;-69
2021/06/09 09:50:09;;;;;;;0.60;0.38;;;;;;;;;;3579071;40;20398;-71
2021/06/09 09:52:48;;;;;;;0.40;0.30;;;;;;;;;;3569850;40;20497;-70
2021/06/09 09:55:15;;;;;;;0.60;0.40;;;;;;;;;;3570697;40;20386;-69
2021/06/09 09:57:41;;;;;;;0.52;0.40;;;;;;;;;;3563385;40;20435;-70
2021/06/09 10:00:09;;;;;;;1.17;0.40;;;;;;;;;;3570036;40;20766;-70
2021/06/09 10:02:35;;;;;;;0.50;0.40;;;;;;;;;;3570934;40;20395;-69
2021/06/09 10:05:10;;;;;;;0.80;0.40;;;;;;;;;;3572876;40;20398;-69
2021/06/09 10:07:36;;;;;;;0.67;0.37;;;;;;;;;;3570248;40;20390;-70
2021/06/09 10:10:04;;;;;;;0.50;0.40;;;;;;;;;;3571285;40;20770;-70
2021/06/09 10:12:30;;;;;;;1.40;0.40;;;;;;;;;;3569778;40;20380;-71
2021/06/09 10:14:56;;;;;;;1.00;0.40;;;26.60;93.10;;;;;;3570898;40;20383;-70
2021/06/09 10:17:24;;;;;;;0.80;0.40;;;26.80;87.80;;;;;;3571762;40;20392;-70
2021/06/09 10:19:53;;;;;;;0.60;0.40;;;27.00;89.40;;;;;;3561818;40;20372;-70
2021/06/09 10:22:22;;;;;;;0.60;0.40;;;27.20;87.60;;;;;;3572657;40;21453;-70
2021/06/09 10:24:53;;;;;;;0.60;0.40;;;27.00;89.50;;;;;;3570224;40;20698;-70
2021/06/09 10:27:20;;;;;;;0.73;0.50;;;27.30;89.60;;;;;;3579623;40;20388;-71
2021/06/09 10:29:46;;;;;;;1.38;0.50;;;27.40;89.60;;;;;;3570968;40;20410;-71
2021/06/09 10:32:16;;;;;;;1.75;0.50;;;27.40;91.00;;;;;;3579528;40;20380;-70
2021/06/09 10:34:42;;;;;;;0.97;0.47;;;27.30;87.40;;;;;;3580932;40;20411;-70
2021/06/09 10:37:10;;;;;;;0.77;0.52;;;27.00;89.70;;;;;;3568655;40;20400;-70
2021/06/09 10:39:40;;;;;;;2.30;0.80;;;27.10;89.80;;;;;;3576809;40;20444;-69
2021/06/09 10:42:08;;;;;;;2.58;0.60;;;27.20;90.40;;;;;;3576868;40;20420;-70
2021/06/09 10:44:36;;;;;;;1.63;0.50;;;27.30;90.90;;;;;;3579932;40;20678;-69
2021/06/09 10:47:05;;;;;;;1.40;0.73;;;27.60;91.20;;;;;;3580286;40;20769;-70
2021/06/09 10:49:34;;;;;;;2.70;0.60;;;;;;;;;;3578491;40;20386;-70
2021/06/09 10:52:00;;;;;;;1.60;0.57;;;;;;;;;;3581862;40;20418;-69
2021/06/09 10:54:26;;;;;;;1.20;0.65;;;;;;;;;;3578491;40;20682;-70
2021/06/09 10:56:55;;;;;;;0.77;0.52;;;;;;;;;;3576189;40;20515;-69
2021/06/09 10:59:22;;;;;;;1.95;0.52;;;;;;;;;;3572114;40;20668;-71
2021/06/09 11:01:49;;;;;;;1.88;0.60;;;;;;;;;;3576068;40;20402;-70
2021/06/09 11:04:16;;;;;;;1.48;0.68;;;;;;;;;;3576670;40;20391;-69
2021/06/09 11:06:43;;;;;;;0.77;0.70;;;;;;;;;;3577747;40;20778;-70
2021/06/09 11:09:20;;;;;;;0.82;0.50;;;;;;;;;;3577804;40;20400;-70
2021/06/09 11:11:48;;;;;;;1.27;0.50;;;;;;;;;;3575473;40;20420;-69
2021/06/09 11:14:26;;;;;;;1.08;0.50;;;;;;;;;;3576593;40;20461;-70
2021/06/09 11:16:54;;;;;;;1.35;0.57;;;27.90;89.00;;;;;;3575241;40;20675;-70
2021/06/09 11:19:34;;;;;;;0.80;0.60;;;29.90;82.00;;;;;;3561327;40;20382;-69
2021/06/09 11:22:19;;;;;;;1.27;0.50;;;29.60;85.80;;;;;;3564691;40;20502;-70
2021/06/09 11:25:11;;;;;;;0.75;0.52;;;29.60;83.70;;;;;;3580029;40;20424;-70
2021/06/09 11:27:47;;;;;;;0.90;0.50;;;29.80;85.80;;;;;;3574904;40;20680;-70
2021/06/09 11:30:51;;;;;;;1.40;0.70;;;29.80;83.50;;;;;;3579814;40;20384;-70
2021/06/09 11:33:51;;;;;;;0.70;0.60;;;29.80;81.30;;;;;;3580134;40;20409;-70
2021/06/09 11:36:41;;;;;;;2.10;0.73;;;;;;;;;;3560690;40;20393;-70
2021/06/09 11:39:22;;;;;;;1.35;0.45;;;30.10;79.00;;;;;;3558738;40;20558;-71
2021/06/09 11:41:50;;;;;;;1.35;0.60;;;31.00;90.40;;;;;;3563175;40;20862;-71
2021/06/09 11:44:31;;;;;;;1.00;0.63;;;30.80;78.20;;;;;;3562208;40;20483;-71
2021/06/09 11:47:16;;;;;;;1.52;0.90;;;30.60;79.30;;;;;;3560861;40;20399;-71
2021/06/09 11:49:45;;;;;;;1.60;0.82;;;30.50;76.80;;;;;;3560562;40;20377;-72
2021/06/09 11:52:11;;;;;;;2.42;0.90;;;30.30;81.50;;;;;;3561080;40;20833;-71
2021/06/09 11:54:37;;;;;;;1.93;0.70;;;30.30;81.80;;;;;;3561299;40;20386;-72
2021/06/09 11:57:06;;;;;;;1.98;0.60;;;30.70;81.60;;;;;;3560569;40;20405;-72
2021/06/09 11:59:34;;;;;;;1.90;0.77;;;31.10;74.10;;;;;;3561768;40;20393;-72
2021/06/09 12:02:01;;;;;;;1.42;0.60;;;;;;;;;;3562277;40;20405;-72
2021/06/09 12:04:28;;;;;;;1.55;0.70;;;;;;;;;;3560424;40;20414;-71
2021/06/09 12:06:57;;;;;;;2.00;1.10;;;;;;;;;;3563618;40;20429;-70
2021/06/09 12:09:24;;;;;;;0.73;0.65;;;;;;;;;;3578486;40;20660;-69
2021/06/09 12:11:51;;;;;;;2.43;0.60;;;;;;;;;;3569197;40;20402;-69
2021/06/09 12:14:19;;;;;;;1.38;0.77;;;;;;;;;;3577268;40;20389;-69
2021/06/09 12:16:46;;;;;;;2.05;0.60;;;30.50;70.80;;;;;;3578485;40;20447;-69
2021/06/09 12:19:37;;;;;;;0.88;0.70;;;30.10;73.30;;;;;;3577616;40;20398;-70
2021/06/09 12:22:07;;;;;;;1.37;0.60;;;30.50;75.50;;;;;;3550353;40;20422;-70
2021/06/09 12:24:35;;;;;;;1.30;0.50;;;31.10;68.50;;;;;;3549557;40;20427;-71
2021/06/09 12:27:04;;;;;;;0.70;0.60;;;31.20;70.40;;;;;;3556770;40;20401;-69
2021/06/09 12:29:33;;;;;;;1.20;0.57;;;31.10;70.20;;;;;;3556221;40;20834;-70
2021/06/09 12:32:01;;;;;;;1.30;0.90;;;31.50;71.50;;;;;;3558738;40;20416;-71
2021/06/09 12:34:31;;;;;;;1.40;0.63;;;31.80;69.90;;;;;;3557972;40;20429;-71
2021/06/09 12:37:04;;;;;;;0.73;0.32;;;32.00;66.00;;;;;;3559263;40;20393;-70
2021/06/09 12:39:32;;;;;;;0.80;0.50;;;32.30;64.90;;;;;;3558646;40;20403;-70
2021/06/09 12:41:59;;;;;;;0.82;0.50;;;32.40;64.60;;;;;;3558906;40;20829;-71
2021/06/09 12:44:27;;;;;;;0.60;0.60;;;32.60;67.80;;;;;;3559160;40;20481;-70
2021/06/09 12:46:56;;;;;;;0.50;0.50;;;32.80;63.90;;;;;;3559914;40;20406;-71
2021/06/09 12:49:27;;;;;;;0.93;0.50;;;33.00;64.70;;;;;;3557843;40;20434;-70
2021/06/09 12:52:05;;;;;;;1.07;0.77;;;33.10;63.30;;;;;;3558632;40;20423;-70
2021/06/09 12:54:32;;;;;;;0.97;0.60;;;33.00;62.50;;;;;;3582486;40;20373;-70
2021/06/09 12:56:58;;;;;;;1.40;0.63;;;32.70;64.00;;;;;;3578573;40;20724;-70
2021/06/09 12:59:32;;;;;;;0.60;0.50;;;32.50;62.70;;;;;;3577797;40;20731;-71
2021/06/09 13:01:58;;;;;;;0.70;0.50;;;32.40;64.40;;;;;;3568402;40;20399;-71
2021/06/09 13:04:37;;;;;;;1.40;0.60;;;32.50;63.50;;;;;;3567187;40;20668;-70
2021/06/09 13:07:03;;;;;;;1.70;0.70;;;32.60;63.40;;;;;;3555619;40;20419;-70
2021/06/09 13:09:29;;;;;;;0.70;0.50;;;32.90;62.10;;;;;;3554385;40;20418;-71
2021/06/09 13:11:57;;;;;;;0.98;0.60;;;32.90;62.80;;;;;;3560115;40;20475;-71
2021/06/09 13:14:30;;;;;;;2.17;0.60;;;32.90;62.50;;;;;;3561737;40;20400;-71
2021/06/09 13:17:01;;;;;;;1.38;0.60;;;33.20;61.50;;;;;;3560577;40;20630;-71
2021/06/09 13:19:27;;;;;;;1.40;0.60;;;33.30;60.30;;;;;;3568895;40;20411;-70
2021/06/09 13:21:53;;;;;;;0.80;0.55;;;33.40;61.10;;;;;;3561800;40;20845;-70
2021/06/09 13:24:21;;;;;;;1.02;0.50;;;33.70;60.50;;;;;;3553952;40;20418;-71
2021/06/09 13:26:49;;;;;;;1.30;0.60;;;33.90;59.90;;;;;;3560921;40;20475;-69